sensor_id;sensor_type;location;lat;lon;timestamp;temperature;humidity
15203;DHT22;7702;51.046;5.184;2023-05-10T00:01:25;13.60;99.90
15203;DHT22;7702;51.046;5.184;2023-05-10T00:03:51;13.60;99.90
15203;DHT22;7702;51.046;5.184;2023-05-10T00:06:17;13.60;99.90
15203;DHT22;7702;51.046;5.184;2023-05-10T00:08:43;13.60;99.90
15203;DHT22;7702;51.046;5.184;2023-05-10T00:11:09;13.60;99.90
15203;DHT22;7702;51.046;5.184;2023-05-10T00:13:34;13.60;99.90
15203;DHT22;7702;51.046;5.184;2023-05-10T00:16:01;13.50;99.90
15203;DHT22;7702;51.046;5.184;2023-05-10T00:18:26;13.60;99.90
15203;DHT22;7702;51.046;5.184;2023-05-10T00:20:52;13.50;99.90
15203;DHT22;7702;51.046;5.184;2023-05-10T00:23:17;13.50;99.90
15203;DHT22;7702;51.046;5.184;2023-05-10T00:25:43;13.50;99.90
15203;DHT22;7702;51.046;5.184;2023-05-10T00:28:09;13.50;99.90
15203;DHT22;7702;51.046;5.184;2023-05-10T00:30:35;13.50;99.90
15203;DHT22;7702;51.046;5.184;2023-05-10T00:33:01;13.60;99.90
15203;DHT22;7702;51.046;5.184;2023-05-10T00:35:26;13.50;99.90
15203;DHT22;7702;51.046;5.184;2023-05-10T00:37:52;13.50;99.90
15203;DHT22;7702;51.046;5.184;2023-05-10T00:40:18;13.40;99.90
15203;DHT22;7702;51.046;5.184;2023-05-10T00:42:44;13.50;99.90
15203;DHT22;7702;51.046;5.184;2023-05-10T00:45:09;13.50;99.90
15203;DHT22;7702;51.046;5.184;2023-05-10T00:47:35;13.50;99.90
15203;DHT22;7702;51.046;5.184;2023-05-10T00:50:01;13.50;99.90
15203;DHT22;7702;51.046;5.184;2023-05-10T00:52:28;13.50;99.90
15203;DHT22;7702;51.046;5.184;2023-05-10T00:54:55;13.50;99.90
15203;DHT22;7702;51.046;5.184;2023-05-10T00:57:22;13.50;99.90
15203;DHT22;7702;51.046;5.184;2023-05-10T00:59:48;13.50;99.90
15203;DHT22;7702;51.046;5.184;2023-05-10T01:02:14;13.50;99.90
15203;DHT22;7702;51.046;5.184;2023-05-10T01:04:39;13.40;99.90
15203;DHT22;7702;51.046;5.184;2023-05-10T01:07:06;13.50;99.90
15203;DHT22;7702;51.046;5.184;2023-05-10T01:09:32;13.50;99.90
15203;DHT22;7702;51.046;5.184;2023-05-10T01:11:59;13.40;99.90
15203;DHT22;7702;51.046;5.184;2023-05-10T01:14:26;13.40;99.90
15203;DHT22;7702;51.046;5.184;2023-05-10T01:16:52;13.40;99.90
15203;DHT22;7702;51.046;5.184;2023-05-10T01:19:19;13.30;99.90
15203;DHT22;7702;51.046;5.184;2023-05-10T01:28:00;13.30;99.90
15203;DHT22;7702;51.046;5.184;2023-05-10T01:30:14;13.20;99.90
15203;DHT22;7702;51.046;5.184;2023-05-10T01:41:17;13.20;99.90
15203;DHT22;7702;51.046;5.184;2023-05-10T01:49:41;13.10;99.90
15203;DHT22;7702;51.046;5.184;2023-05-10T01:52:12;13.10;99.90
15203;DHT22;7702;51.046;5.184;2023-05-10T01:54:42;13.10;99.90
15203;DHT22;7702;51.046;5.184;2023-05-10T01:57:10;13.10;99.90
15203;DHT22;7702;51.046;5.184;2023-05-10T01:59:40;13.10;99.90
15203;DHT22;7702;51.046;5.184;2023-05-10T02:02:10;13.10;99.90
15203;DHT22;7702;51.046;5.184;2023-05-10T02:04:38;13.10;99.90
15203;DHT22;7702;51.046;5.184;2023-05-10T02:07:06;13.00;99.90
15203;DHT22;7702;51.046;5.184;2023-05-10T02:09:33;13.10;99.90
15203;DHT22;7702;51.046;5.184;2023-05-10T02:12:02;13.10;99.90
15203;DHT22;7702;51.046;5.184;2023-05-10T02:14:32;13.00;99.90
15203;DHT22;7702;51.046;5.184;2023-05-10T02:16:59;13.10;99.90
15203;DHT22;7702;51.046;5.184;2023-05-10T02:19:28;13.10;99.90
15203;DHT22;7702;51.046;5.184;2023-05-10T02:21:55;13.20;99.90
15203;DHT22;7702;51.046;5.184;2023-05-10T02:24:24;13.20;99.90
15203;DHT22;7702;51.046;5.184;2023-05-10T02:26:53;13.10;99.90
15203;DHT22;7702;51.046;5.184;2023-05-10T02:29:25;13.10;99.90
15203;DHT22;7702;51.046;5.184;2023-05-10T02:31:54;13.20;99.90
15203;DHT22;7702;51.046;5.184;2023-05-10T02:34:21;13.10;99.90
15203;DHT22;7702;51.046;5.184;2023-05-10T02:36:48;13.10;99.90
15203;DHT22;7702;51.046;5.184;2023-05-10T02:39:15;13.10;99.90
15203;DHT22;7702;51.046;5.184;2023-05-10T02:41:42;13.10;99.90
15203;DHT22;7702;51.046;5.184;2023-05-10T02:44:09;13.10;99.90
15203;DHT22;7702;51.046;5.184;2023-05-10T02:46:35;13.10;99.90
15203;DHT22;7702;51.046;5.184;2023-05-10T02:49:03;13.00;99.90
15203;DHT22;7702;51.046;5.184;2023-05-10T02:51:32;13.10;99.90
15203;DHT22;7702;51.046;5.184;2023-05-10T02:54:11;13.10;99.90
15203;DHT22;7702;51.046;5.184;2023-05-10T02:56:42;13.10;99.90
15203;DHT22;7702;51.046;5.184;2023-05-10T02:59:12;13.00;99.90
15203;DHT22;7702;51.046;5.184;2023-05-10T03:01:38;13.00;99.90
15203;DHT22;7702;51.046;5.184;2023-05-10T03:04:04;13.10;99.90
15203;DHT22;7702;51.046;5.184;2023-05-10T03:06:29;13.00;99.90
15203;DHT22;7702;51.046;5.184;2023-05-10T03:08:55;13.00;99.90
15203;DHT22;7702;51.046;5.184;2023-05-10T03:19:47;13.10;99.90
15203;DHT22;7702;51.046;5.184;2023-05-10T03:22:20;13.10;99.90
15203;DHT22;7702;51.046;5.184;2023-05-10T03:24:48;13.20;99.90
15203;DHT22;7702;51.046;5.184;2023-05-10T03:27:14;13.10;99.90
15203;DHT22;7702;51.046;5.184;2023-05-10T03:29:40;13.10;99.90
15203;DHT22;7702;51.046;5.184;2023-05-10T03:32:07;13.10;99.90
15203;DHT22;7702;51.046;5.184;2023-05-10T03:34:34;13.10;99.90
15203;DHT22;7702;51.046;5.184;2023-05-10T03:37:06;13.10;99.90
15203;DHT22;7702;51.046;5.184;2023-05-10T03:39:32;13.10;99.90
15203;DHT22;7702;51.046;5.184;2023-05-10T03:41:57;13.10;99.90
15203;DHT22;7702;51.046;5.184;2023-05-10T03:44:23;13.10;99.90
15203;DHT22;7702;51.046;5.184;2023-05-10T03:46:49;13.10;99.90
15203;DHT22;7702;51.046;5.184;2023-05-10T03:49:15;13.10;99.90
15203;DHT22;7702;51.046;5.184;2023-05-10T03:51:41;13.10;99.90
15203;DHT22;7702;51.046;5.184;2023-05-10T03:54:06;13.10;99.90
15203;DHT22;7702;51.046;5.184;2023-05-10T03:56:32;13.10;99.90
15203;DHT22;7702;51.046;5.184;2023-05-10T03:58:58;13.10;99.90
15203;DHT22;7702;51.046;5.184;2023-05-10T04:01:23;13.10;99.90
15203;DHT22;7702;51.046;5.184;2023-05-10T04:03:49;13.10;99.90
15203;DHT22;7702;51.046;5.184;2023-05-10T04:06:15;13.00;99.90
15203;DHT22;7702;51.046;5.184;2023-05-10T04:08:40;13.00;99.90
15203;DHT22;7702;51.046;5.184;2023-05-10T04:11:11;13.00;99.90
15203;DHT22;7702;51.046;5.184;2023-05-10T04:13:37;13.00;99.90
15203;DHT22;7702;51.046;5.184;2023-05-10T04:16:04;13.10;99.90
15203;DHT22;7702;51.046;5.184;2023-05-10T04:18:30;13.10;99.90
15203;DHT22;7702;51.046;5.184;2023-05-10T04:20:56;13.00;99.90
15203;DHT22;7702;51.046;5.184;2023-05-10T04:23:22;13.00;99.90
15203;DHT22;7702;51.046;5.184;2023-05-10T04:25:48;13.00;99.90
15203;DHT22;7702;51.046;5.184;2023-05-10T04:28:14;13.10;99.90
15203;DHT22;7702;51.046;5.184;2023-05-10T04:30:40;13.10;99.90
15203;DHT22;7702;51.046;5.184;2023-05-10T04:33:06;13.10;99.90
15203;DHT22;7702;51.046;5.184;2023-05-10T04:35:32;13.10;99.90
15203;DHT22;7702;51.046;5.184;2023-05-10T04:37:57;13.10;99.90
15203;DHT22;7702;51.046;5.184;2023-05-10T04:40:23;13.00;99.90
15203;DHT22;7702;51.046;5.184;2023-05-10T04:42:49;13.00;99.90
15203;DHT22;7702;51.046;5.184;2023-05-10T04:45:14;13.10;99.90
15203;DHT22;7702;51.046;5.184;2023-05-10T04:47:40;13.00;99.90
15203;DHT22;7702;51.046;5.184;2023-05-10T04:50:07;13.00;99.90
15203;DHT22;7702;51.046;5.184;2023-05-10T04:52:33;13.00;99.90
15203;DHT22;7702;51.046;5.184;2023-05-10T04:54:59;12.90;99.90
15203;DHT22;7702;51.046;5.184;2023-05-10T04:57:25;12.90;99.90
15203;DHT22;7702;51.046;5.184;2023-05-10T04:59:52;12.90;99.90
15203;DHT22;7702;51.046;5.184;2023-05-10T05:02:18;12.90;99.90
15203;DHT22;7702;51.046;5.184;2023-05-10T05:04:43;12.80;99.90
15203;DHT22;7702;51.046;5.184;2023-05-10T05:07:09;12.70;99.90
15203;DHT22;7702;51.046;5.184;2023-05-10T05:09:35;12.80;99.90
15203;DHT22;7702;51.046;5.184;2023-05-10T05:12:01;12.70;99.90
15203;DHT22;7702;51.046;5.184;2023-05-10T05:14:27;12.70;99.90
15203;DHT22;7702;51.046;5.184;2023-05-10T05:16:52;12.70;99.90
15203;DHT22;7702;51.046;5.184;2023-05-10T05:19:18;12.80;99.90
15203;DHT22;7702;51.046;5.184;2023-05-10T05:21:44;12.80;99.90
15203;DHT22;7702;51.046;5.184;2023-05-10T05:24:10;12.80;99.90
15203;DHT22;7702;51.046;5.184;2023-05-10T05:26:36;12.90;99.90
15203;DHT22;7702;51.046;5.184;2023-05-10T05:29:02;12.80;99.90
15203;DHT22;7702;51.046;5.184;2023-05-10T05:31:28;12.80;99.90
15203;DHT22;7702;51.046;5.184;2023-05-10T05:33:54;12.90;99.90
15203;DHT22;7702;51.046;5.184;2023-05-10T05:36:21;13.00;99.90
15203;DHT22;7702;51.046;5.184;2023-05-10T05:38:47;13.10;99.90
15203;DHT22;7702;51.046;5.184;2023-05-10T05:41:13;13.10;99.90
15203;DHT22;7702;51.046;5.184;2023-05-10T05:43:39;13.20;99.90
15203;DHT22;7702;51.046;5.184;2023-05-10T05:46:04;13.30;99.90
15203;DHT22;7702;51.046;5.184;2023-05-10T05:48:31;13.40;99.90
15203;DHT22;7702;51.046;5.184;2023-05-10T05:50:57;13.40;99.90
15203;DHT22;7702;51.046;5.184;2023-05-10T05:53:23;13.60;99.90
15203;DHT22;7702;51.046;5.184;2023-05-10T05:55:56;13.60;99.90
15203;DHT22;7702;51.046;5.184;2023-05-10T05:58:23;13.70;99.90
15203;DHT22;7702;51.046;5.184;2023-05-10T06:00:49;13.90;99.90
15203;DHT22;7702;51.046;5.184;2023-05-10T06:03:15;13.80;99.90
15203;DHT22;7702;51.046;5.184;2023-05-10T06:05:41;13.90;99.90
15203;DHT22;7702;51.046;5.184;2023-05-10T06:08:07;14.00;99.90
15203;DHT22;7702;51.046;5.184;2023-05-10T06:10:32;14.00;99.90
15203;DHT22;7702;51.046;5.184;2023-05-10T06:12:58;14.00;99.90
15203;DHT22;7702;51.046;5.184;2023-05-10T06:15:24;14.00;99.90
15203;DHT22;7702;51.046;5.184;2023-05-10T06:17:50;14.20;99.90
15203;DHT22;7702;51.046;5.184;2023-05-10T06:20:15;14.10;99.90
15203;DHT22;7702;51.046;5.184;2023-05-10T06:22:41;14.10;99.90
15203;DHT22;7702;51.046;5.184;2023-05-10T06:25:08;14.00;99.90
15203;DHT22;7702;51.046;5.184;2023-05-10T06:27:34;14.00;99.90
15203;DHT22;7702;51.046;5.184;2023-05-10T06:30:00;13.90;99.90
15203;DHT22;7702;51.046;5.184;2023-05-10T06:32:25;13.90;99.90
15203;DHT22;7702;51.046;5.184;2023-05-10T06:34:52;13.90;99.90
15203;DHT22;7702;51.046;5.184;2023-05-10T06:37:18;13.90;99.90
15203;DHT22;7702;51.046;5.184;2023-05-10T06:39:43;13.90;99.90
15203;DHT22;7702;51.046;5.184;2023-05-10T06:42:09;13.90;99.90
15203;DHT22;7702;51.046;5.184;2023-05-10T06:44:35;13.80;99.90
15203;DHT22;7702;51.046;5.184;2023-05-10T06:47:00;13.80;99.90
15203;DHT22;7702;51.046;5.184;2023-05-10T06:49:26;13.90;99.90
15203;DHT22;7702;51.046;5.184;2023-05-10T06:51:52;13.80;99.90
15203;DHT22;7702;51.046;5.184;2023-05-10T06:54:18;13.80;99.90
15203;DHT22;7702;51.046;5.184;2023-05-10T06:56:44;13.70;99.90
15203;DHT22;7702;51.046;5.184;2023-05-10T06:59:09;13.70;99.90
15203;DHT22;7702;51.046;5.184;2023-05-10T07:01:35;13.70;99.90
15203;DHT22;7702;51.046;5.184;2023-05-10T07:04:01;13.60;99.90
15203;DHT22;7702;51.046;5.184;2023-05-10T07:06:26;13.60;99.90
15203;DHT22;7702;51.046;5.184;2023-05-10T07:08:53;13.60;99.90
15203;DHT22;7702;51.046;5.184;2023-05-10T07:11:18;13.50;99.90
15203;DHT22;7702;51.046;5.184;2023-05-10T07:13:44;13.50;99.90
15203;DHT22;7702;51.046;5.184;2023-05-10T07:16:11;13.50;99.90
15203;DHT22;7702;51.046;5.184;2023-05-10T07:18:37;13.40;99.90
15203;DHT22;7702;51.046;5.184;2023-05-10T07:21:03;13.50;99.90
15203;DHT22;7702;51.046;5.184;2023-05-10T07:23:29;13.40;99.90
15203;DHT22;7702;51.046;5.184;2023-05-10T07:25:55;13.40;99.90
15203;DHT22;7702;51.046;5.184;2023-05-10T07:28:22;13.40;99.90
15203;DHT22;7702;51.046;5.184;2023-05-10T07:30:50;13.40;99.90
15203;DHT22;7702;51.046;5.184;2023-05-10T07:33:15;13.40;99.90
15203;DHT22;7702;51.046;5.184;2023-05-10T07:35:42;13.50;99.90
15203;DHT22;7702;51.046;5.184;2023-05-10T07:38:08;13.40;99.90
15203;DHT22;7702;51.046;5.184;2023-05-10T07:40:33;13.30;99.90
15203;DHT22;7702;51.046;5.184;2023-05-10T07:42:59;13.30;99.90
15203;DHT22;7702;51.046;5.184;2023-05-10T07:45:27;13.30;99.90
15203;DHT22;7702;51.046;5.184;2023-05-10T07:47:53;13.20;99.90
15203;DHT22;7702;51.046;5.184;2023-05-10T07:50:19;13.20;99.90
15203;DHT22;7702;51.046;5.184;2023-05-10T07:52:46;13.30;99.90
15203;DHT22;7702;51.046;5.184;2023-05-10T07:55:12;13.30;99.90
15203;DHT22;7702;51.046;5.184;2023-05-10T07:57:38;13.40;99.90
15203;DHT22;7702;51.046;5.184;2023-05-10T08:00:05;13.50;99.90
15203;DHT22;7702;51.046;5.184;2023-05-10T08:02:31;13.50;99.90
15203;DHT22;7702;51.046;5.184;2023-05-10T08:04:56;13.40;99.90
15203;DHT22;7702;51.046;5.184;2023-05-10T08:07:24;13.40;99.90
15203;DHT22;7702;51.046;5.184;2023-05-10T08:09:49;13.40;99.90
15203;DHT22;7702;51.046;5.184;2023-05-10T08:12:15;13.50;99.90
15203;DHT22;7702;51.046;5.184;2023-05-10T08:14:41;13.60;99.90
15203;DHT22;7702;51.046;5.184;2023-05-10T08:17:07;13.50;99.90
15203;DHT22;7702;51.046;5.184;2023-05-10T08:19:33;13.60;99.90
15203;DHT22;7702;51.046;5.184;2023-05-10T08:21:58;13.70;99.90
15203;DHT22;7702;51.046;5.184;2023-05-10T08:24:24;13.90;99.90
15203;DHT22;7702;51.046;5.184;2023-05-10T08:26:50;14.00;99.90
15203;DHT22;7702;51.046;5.184;2023-05-10T08:29:16;14.00;99.90
15203;DHT22;7702;51.046;5.184;2023-05-10T08:31:41;14.20;99.90
15203;DHT22;7702;51.046;5.184;2023-05-10T08:34:07;14.20;99.90
15203;DHT22;7702;51.046;5.184;2023-05-10T08:36:33;14.20;99.90
15203;DHT22;7702;51.046;5.184;2023-05-10T08:38:58;14.30;99.90
15203;DHT22;7702;51.046;5.184;2023-05-10T08:41:24;14.40;99.90
15203;DHT22;7702;51.046;5.184;2023-05-10T08:43:52;14.40;99.90
15203;DHT22;7702;51.046;5.184;2023-05-10T08:46:20;14.30;99.90
15203;DHT22;7702;51.046;5.184;2023-05-10T08:48:47;14.40;99.90
15203;DHT22;7702;51.046;5.184;2023-05-10T08:51:14;14.60;99.90
15203;DHT22;7702;51.046;5.184;2023-05-10T08:53:40;14.70;99.90
15203;DHT22;7702;51.046;5.184;2023-05-10T08:56:07;14.70;99.90
15203;DHT22;7702;51.046;5.184;2023-05-10T08:58:33;14.70;99.90
15203;DHT22;7702;51.046;5.184;2023-05-10T09:00:59;14.70;99.90
15203;DHT22;7702;51.046;5.184;2023-05-10T09:03:26;14.70;99.90
15203;DHT22;7702;51.046;5.184;2023-05-10T09:05:52;14.60;99.90
15203;DHT22;7702;51.046;5.184;2023-05-10T09:08:18;14.50;99.90
15203;DHT22;7702;51.046;5.184;2023-05-10T09:10:45;14.60;99.90
15203;DHT22;7702;51.046;5.184;2023-05-10T09:13:14;14.90;99.90
15203;DHT22;7702;51.046;5.184;2023-05-10T09:15:40;15.00;99.90
15203;DHT22;7702;51.046;5.184;2023-05-10T09:18:06;15.00;99.90
15203;DHT22;7702;51.046;5.184;2023-05-10T09:20:32;14.80;99.90
15203;DHT22;7702;51.046;5.184;2023-05-10T09:22:58;14.70;99.90
15203;DHT22;7702;51.046;5.184;2023-05-10T09:25:23;14.80;99.90
15203;DHT22;7702;51.046;5.184;2023-05-10T09:27:49;14.90;99.90
15203;DHT22;7702;51.046;5.184;2023-05-10T09:30:17;15.00;99.90
15203;DHT22;7702;51.046;5.184;2023-05-10T09:32:45;15.00;99.90
15203;DHT22;7702;51.046;5.184;2023-05-10T09:35:16;14.90;99.90
15203;DHT22;7702;51.046;5.184;2023-05-10T09:37:44;14.70;99.90
15203;DHT22;7702;51.046;5.184;2023-05-10T09:40:14;14.60;99.90
15203;DHT22;7702;51.046;5.184;2023-05-10T09:42:42;14.50;99.90
15203;DHT22;7702;51.046;5.184;2023-05-10T09:45:08;14.40;99.90
15203;DHT22;7702;51.046;5.184;2023-05-10T09:47:35;14.40;99.90
15203;DHT22;7702;51.046;5.184;2023-05-10T09:50:02;14.30;99.90
15203;DHT22;7702;51.046;5.184;2023-05-10T09:52:56;14.30;99.90
15203;DHT22;7702;51.046;5.184;2023-05-10T09:55:37;14.30;99.90
15203;DHT22;7702;51.046;5.184;2023-05-10T09:58:03;14.40;99.90
15203;DHT22;7702;51.046;5.184;2023-05-10T10:00:37;14.60;99.90
15203;DHT22;7702;51.046;5.184;2023-05-10T10:03:03;14.70;99.90
15203;DHT22;7702;51.046;5.184;2023-05-10T10:05:34;14.80;99.90
15203;DHT22;7702;51.046;5.184;2023-05-10T10:08:04;14.80;99.90
15203;DHT22;7702;51.046;5.184;2023-05-10T10:10:31;14.90;99.90
15203;DHT22;7702;51.046;5.184;2023-05-10T10:12:57;14.90;99.90
15203;DHT22;7702;51.046;5.184;2023-05-10T10:15:23;14.90;99.90
15203;DHT22;7702;51.046;5.184;2023-05-10T10:17:50;14.90;99.90
15203;DHT22;7702;51.046;5.184;2023-05-10T10:20:17;15.00;99.90
15203;DHT22;7702;51.046;5.184;2023-05-10T10:22:43;15.20;99.90
15203;DHT22;7702;51.046;5.184;2023-05-10T10:25:10;15.30;99.90
15203;DHT22;7702;51.046;5.184;2023-05-10T10:35:49;15.50;99.90
15203;DHT22;7702;51.046;5.184;2023-05-10T10:38:16;16.00;99.90
15203;DHT22;7702;51.046;5.184;2023-05-10T10:40:42;16.20;99.90
15203;DHT22;7702;51.046;5.184;2023-05-10T10:43:25;16.20;99.90
15203;DHT22;7702;51.046;5.184;2023-05-10T10:46:10;16.10;99.90
15203;DHT22;7702;51.046;5.184;2023-05-10T10:48:40;16.30;99.90
15203;DHT22;7702;51.046;5.184;2023-05-10T10:51:06;16.40;99.90
15203;DHT22;7702;51.046;5.184;2023-05-10T10:53:32;16.30;99.90
15203;DHT22;7702;51.046;5.184;2023-05-10T10:56:12;16.10;99.90
15203;DHT22;7702;51.046;5.184;2023-05-10T10:58:40;16.10;99.90
15203;DHT22;7702;51.046;5.184;2023-05-10T11:01:33;16.20;99.90
15203;DHT22;7702;51.046;5.184;2023-05-10T11:06:35;16.90;99.90
15203;DHT22;7702;51.046;5.184;2023-05-10T11:09:08;17.00;99.90
15203;DHT22;7702;51.046;5.184;2023-05-10T11:11:35;16.90;99.90
15203;DHT22;7702;51.046;5.184;2023-05-10T11:14:07;17.00;99.90
15203;DHT22;7702;51.046;5.184;2023-05-10T11:16:43;17.00;99.90
15203;DHT22;7702;51.046;5.184;2023-05-10T11:19:11;17.20;99.90
15203;DHT22;7702;51.046;5.184;2023-05-10T11:21:50;17.50;99.90
15203;DHT22;7702;51.046;5.184;2023-05-10T11:24:22;17.40;99.90
15203;DHT22;7702;51.046;5.184;2023-05-10T11:26:50;17.50;99.90
15203;DHT22;7702;51.046;5.184;2023-05-10T11:29:16;17.50;99.90
15203;DHT22;7702;51.046;5.184;2023-05-10T11:31:43;17.60;99.90
15203;DHT22;7702;51.046;5.184;2023-05-10T11:34:10;17.70;99.90
15203;DHT22;7702;51.046;5.184;2023-05-10T11:36:36;17.50;99.90
15203;DHT22;7702;51.046;5.184;2023-05-10T11:39:03;17.20;99.90
15203;DHT22;7702;51.046;5.184;2023-05-10T11:41:30;17.10;99.90
15203;DHT22;7702;51.046;5.184;2023-05-10T11:43:57;17.10;99.90
15203;DHT22;7702;51.046;5.184;2023-05-10T11:46:25;17.20;99.90
15203;DHT22;7702;51.046;5.184;2023-05-10T11:48:55;16.90;99.90
15203;DHT22;7702;51.046;5.184;2023-05-10T11:51:24;16.60;99.90
15203;DHT22;7702;51.046;5.184;2023-05-10T11:53:53;16.60;99.90
15203;DHT22;7702;51.046;5.184;2023-05-10T11:56:19;16.60;99.90
15203;DHT22;7702;51.046;5.184;2023-05-10T11:58:53;16.50;99.90
15203;DHT22;7702;51.046;5.184;2023-05-10T12:01:20;16.20;99.90
15203;DHT22;7702;51.046;5.184;2023-05-10T12:03:45;16.30;99.90
15203;DHT22;7702;51.046;5.184;2023-05-10T12:06:11;16.50;99.90
15203;DHT22;7702;51.046;5.184;2023-05-10T12:08:44;16.40;99.90
15203;DHT22;7702;51.046;5.184;2023-05-10T12:11:12;16.90;99.90
15203;DHT22;7702;51.046;5.184;2023-05-10T12:13:39;16.60;99.90
15203;DHT22;7702;51.046;5.184;2023-05-10T12:16:24;16.70;99.90
15203;DHT22;7702;51.046;5.184;2023-05-10T12:18:52;17.00;99.90
15203;DHT22;7702;51.046;5.184;2023-05-10T12:21:19;17.30;99.90
15203;DHT22;7702;51.046;5.184;2023-05-10T12:23:46;17.80;99.90
15203;DHT22;7702;51.046;5.184;2023-05-10T12:26:12;17.80;99.90
15203;DHT22;7702;51.046;5.184;2023-05-10T12:28:38;18.00;99.90
15203;DHT22;7702;51.046;5.184;2023-05-10T12:31:07;18.20;99.90
15203;DHT22;7702;51.046;5.184;2023-05-10T12:33:43;18.50;99.90
15203;DHT22;7702;51.046;5.184;2023-05-10T12:36:09;18.60;99.90
15203;DHT22;7702;51.046;5.184;2023-05-10T12:38:40;18.60;99.90
15203;DHT22;7702;51.046;5.184;2023-05-10T12:41:14;18.30;99.90
15203;DHT22;7702;51.046;5.184;2023-05-10T12:43:40;17.80;99.90
15203;DHT22;7702;51.046;5.184;2023-05-10T12:46:10;17.20;99.90
15203;DHT22;7702;51.046;5.184;2023-05-10T12:48:37;17.50;99.90
15203;DHT22;7702;51.046;5.184;2023-05-10T12:51:04;17.50;99.90
15203;DHT22;7702;51.046;5.184;2023-05-10T12:53:30;17.70;99.90
15203;DHT22;7702;51.046;5.184;2023-05-10T12:55:56;17.80;99.90
15203;DHT22;7702;51.046;5.184;2023-05-10T12:58:22;17.50;99.90
15203;DHT22;7702;51.046;5.184;2023-05-10T13:00:47;17.70;99.90
15203;DHT22;7702;51.046;5.184;2023-05-10T13:03:13;17.60;99.90
15203;DHT22;7702;51.046;5.184;2023-05-10T13:05:40;17.70;99.90
15203;DHT22;7702;51.046;5.184;2023-05-10T13:08:06;17.90;99.90
15203;DHT22;7702;51.046;5.184;2023-05-10T13:10:32;18.00;99.90
15203;DHT22;7702;51.046;5.184;2023-05-10T13:12:58;18.00;99.90
15203;DHT22;7702;51.046;5.184;2023-05-10T13:15:25;17.90;99.90
15203;DHT22;7702;51.046;5.184;2023-05-10T13:17:51;17.80;99.90
15203;DHT22;7702;51.046;5.184;2023-05-10T13:20:17;17.80;99.90
15203;DHT22;7702;51.046;5.184;2023-05-10T13:22:44;17.70;99.90
15203;DHT22;7702;51.046;5.184;2023-05-10T13:25:10;17.50;99.90
15203;DHT22;7702;51.046;5.184;2023-05-10T13:27:37;17.60;99.90
15203;DHT22;7702;51.046;5.184;2023-05-10T13:30:03;17.40;99.90
15203;DHT22;7702;51.046;5.184;2023-05-10T13:32:29;17.30;99.90
15203;DHT22;7702;51.046;5.184;2023-05-10T13:34:55;17.30;99.90
15203;DHT22;7702;51.046;5.184;2023-05-10T13:37:21;17.40;99.90
15203;DHT22;7702;51.046;5.184;2023-05-10T13:39:47;17.60;99.90
15203;DHT22;7702;51.046;5.184;2023-05-10T13:42:13;17.70;99.90
15203;DHT22;7702;51.046;5.184;2023-05-10T13:44:40;17.90;99.90
15203;DHT22;7702;51.046;5.184;2023-05-10T13:47:06;17.90;99.90
15203;DHT22;7702;51.046;5.184;2023-05-10T13:49:31;17.70;99.90
15203;DHT22;7702;51.046;5.184;2023-05-10T13:51:57;17.60;99.90
15203;DHT22;7702;51.046;5.184;2023-05-10T13:54:23;17.70;99.90
15203;DHT22;7702;51.046;5.184;2023-05-10T13:56:49;17.80;99.90
15203;DHT22;7702;51.046;5.184;2023-05-10T13:59:15;17.60;99.90
15203;DHT22;7702;51.046;5.184;2023-05-10T14:01:41;17.70;99.90
15203;DHT22;7702;51.046;5.184;2023-05-10T14:04:08;17.70;99.90
15203;DHT22;7702;51.046;5.184;2023-05-10T14:06:36;17.80;99.90
15203;DHT22;7702;51.046;5.184;2023-05-10T14:09:03;17.90;99.90
15203;DHT22;7702;51.046;5.184;2023-05-10T14:11:28;17.80;99.90
15203;DHT22;7702;51.046;5.184;2023-05-10T14:13:54;17.70;99.90
15203;DHT22;7702;51.046;5.184;2023-05-10T14:16:20;17.70;99.90
15203;DHT22;7702;51.046;5.184;2023-05-10T14:18:46;17.80;99.90
15203;DHT22;7702;51.046;5.184;2023-05-10T14:21:12;18.00;99.90
15203;DHT22;7702;51.046;5.184;2023-05-10T14:23:38;18.20;99.90
15203;DHT22;7702;51.046;5.184;2023-05-10T14:26:05;18.10;99.90
15203;DHT22;7702;51.046;5.184;2023-05-10T14:28:30;18.10;99.90
15203;DHT22;7702;51.046;5.184;2023-05-10T14:30:56;18.10;99.90
15203;DHT22;7702;51.046;5.184;2023-05-10T14:33:22;18.00;99.90
15203;DHT22;7702;51.046;5.184;2023-05-10T14:35:48;18.20;99.90
15203;DHT22;7702;51.046;5.184;2023-05-10T14:38:14;18.20;99.90
15203;DHT22;7702;51.046;5.184;2023-05-10T14:40:40;18.30;99.90
15203;DHT22;7702;51.046;5.184;2023-05-10T14:43:05;18.20;99.90
15203;DHT22;7702;51.046;5.184;2023-05-10T14:45:31;17.90;99.90
15203;DHT22;7702;51.046;5.184;2023-05-10T14:47:57;18.00;99.90
15203;DHT22;7702;51.046;5.184;2023-05-10T14:50:23;17.90;99.90
15203;DHT22;7702;51.046;5.184;2023-05-10T14:52:49;17.90;99.90
15203;DHT22;7702;51.046;5.184;2023-05-10T14:55:15;17.80;99.90
15203;DHT22;7702;51.046;5.184;2023-05-10T14:57:41;17.80;99.90
15203;DHT22;7702;51.046;5.184;2023-05-10T15:00:07;17.80;99.90
15203;DHT22;7702;51.046;5.184;2023-05-10T15:02:33;18.20;99.90
15203;DHT22;7702;51.046;5.184;2023-05-10T15:04:59;18.30;99.90
15203;DHT22;7702;51.046;5.184;2023-05-10T15:07:25;18.60;99.90
15203;DHT22;7702;51.046;5.184;2023-05-10T15:09:51;18.50;99.90
15203;DHT22;7702;51.046;5.184;2023-05-10T15:12:18;18.60;99.90
15203;DHT22;7702;51.046;5.184;2023-05-10T15:14:44;18.80;99.90
15203;DHT22;7702;51.046;5.184;2023-05-10T15:17:10;19.00;99.90
15203;DHT22;7702;51.046;5.184;2023-05-10T15:19:35;18.90;99.90
15203;DHT22;7702;51.046;5.184;2023-05-10T15:22:02;18.60;99.90
15203;DHT22;7702;51.046;5.184;2023-05-10T15:24:28;18.20;99.90
15203;DHT22;7702;51.046;5.184;2023-05-10T15:26:54;18.30;99.90
15203;DHT22;7702;51.046;5.184;2023-05-10T15:29:19;18.20;99.90
15203;DHT22;7702;51.046;5.184;2023-05-10T15:31:47;18.10;99.90
15203;DHT22;7702;51.046;5.184;2023-05-10T15:34:13;18.00;99.90
15203;DHT22;7702;51.046;5.184;2023-05-10T15:36:39;18.00;99.90
15203;DHT22;7702;51.046;5.184;2023-05-10T15:39:05;18.20;99.90
15203;DHT22;7702;51.046;5.184;2023-05-10T15:41:31;18.00;99.90
15203;DHT22;7702;51.046;5.184;2023-05-10T15:43:58;17.90;99.90
15203;DHT22;7702;51.046;5.184;2023-05-10T15:46:30;17.80;99.90
15203;DHT22;7702;51.046;5.184;2023-05-10T15:48:57;17.80;99.90
15203;DHT22;7702;51.046;5.184;2023-05-10T15:51:24;17.90;99.90
15203;DHT22;7702;51.046;5.184;2023-05-10T15:53:50;17.90;99.90
15203;DHT22;7702;51.046;5.184;2023-05-10T15:56:16;17.90;99.90
15203;DHT22;7702;51.046;5.184;2023-05-10T15:58:42;17.80;99.90
15203;DHT22;7702;51.046;5.184;2023-05-10T16:01:09;17.80;99.90
15203;DHT22;7702;51.046;5.184;2023-05-10T16:03:36;17.70;99.90
15203;DHT22;7702;51.046;5.184;2023-05-10T16:06:02;17.30;99.90
15203;DHT22;7702;51.046;5.184;2023-05-10T16:08:28;17.10;99.90
15203;DHT22;7702;51.046;5.184;2023-05-10T16:10:59;17.20;99.90
15203;DHT22;7702;51.046;5.184;2023-05-10T16:13:25;17.30;99.90
15203;DHT22;7702;51.046;5.184;2023-05-10T16:15:51;17.40;99.90
15203;DHT22;7702;51.046;5.184;2023-05-10T16:18:17;17.40;99.90
15203;DHT22;7702;51.046;5.184;2023-05-10T16:20:43;17.50;99.90
15203;DHT22;7702;51.046;5.184;2023-05-10T16:23:10;17.40;99.90